createdAt,value
2019-06-01T00:00:11.966Z,18.40
2019-06-01T00:02:38.652Z,18.30
2019-06-01T00:05:07.536Z,18.30
2019-06-01T00:07:36.318Z,18.20
2019-06-01T00:10:08.293Z,18.30
2019-06-01T00:12:36.878Z,18.20
2019-06-01T00:15:06.769Z,18.10
2019-06-01T00:17:35.380Z,18.10
2019-06-01T00:20:05.269Z,18.00
2019-06-01T00:22:34.183Z,18.00
2019-06-01T00:25:02.742Z,18.00
2019-06-01T00:27:31.358Z,18.00
2019-06-01T00:29:59.970Z,18.00
2019-06-01T00:32:28.548Z,18.00
2019-06-01T00:34:57.143Z,17.90
2019-06-01T00:37:25.919Z,17.90
2019-06-01T00:39:54.451Z,18.00
2019-06-01T00:42:23.200Z,18.00
2019-06-01T00:44:52.528Z,17.90
2019-06-01T00:47:21.186Z,17.70
2019-06-01T00:49:50.997Z,17.70
2019-06-01T00:52:19.567Z,17.80
2019-06-01T00:54:49.497Z,17.70
2019-06-01T00:57:18.302Z,17.80
2019-06-01T00:59:47.992Z,17.70
2019-06-01T01:02:16.665Z,17.80
2019-06-01T01:04:46.400Z,18.00
2019-06-01T01:07:15.010Z,17.70
2019-06-01T01:09:44.677Z,17.60
2019-06-01T01:12:13.483Z,17.60
2019-06-01T01:14:41.991Z,17.60
2019-06-01T01:17:10.600Z,17.80
2019-06-01T01:19:39.360Z,17.70
2019-06-01T01:22:07.906Z,17.60
2019-06-01T01:24:36.460Z,17.50
2019-06-01T01:27:05.246Z,17.50
2019-06-01T01:29:33.853Z,17.40
2019-06-01T01:32:02.414Z,17.50
2019-06-01T01:34:31.080Z,17.50
2019-06-01T01:36:59.629Z,17.60
2019-06-01T01:39:28.384Z,17.50
2019-06-01T01:41:56.928Z,17.60
2019-06-01T01:44:25.703Z,17.50
2019-06-01T01:46:54.855Z,17.60
2019-06-01T01:49:25.047Z,17.70
2019-06-01T01:51:53.723Z,17.60
2019-06-01T01:54:23.312Z,17.50
2019-06-01T01:56:52.116Z,17.40
2019-06-01T01:59:20.879Z,17.30
2019-06-01T02:01:50.393Z,17.40
2019-06-01T02:04:18.960Z,17.50
2019-06-01T02:06:47.427Z,17.30
2019-06-01T02:09:16.154Z,17.30
2019-06-01T02:11:44.706Z,17.30
2019-06-01T02:14:13.304Z,17.50
2019-06-01T02:16:42.018Z,17.60
2019-06-01T02:19:10.670Z,17.60
2019-06-01T02:21:39.184Z,17.40
2019-06-01T02:24:08.005Z,17.30
2019-06-01T02:26:36.563Z,17.40
2019-06-01T02:29:05.427Z,17.30
2019-06-01T02:31:41.423Z,17.20
2019-06-01T02:34:06.165Z,17.10
2019-06-01T02:36:34.874Z,17.00
2019-06-01T02:39:05.387Z,17.00
2019-06-01T02:41:34.175Z,17.10
2019-06-01T02:44:03.822Z,17.10
2019-06-01T02:46:35.730Z,17.10
2019-06-01T02:49:04.200Z,17.20
2019-06-01T02:51:34.164Z,17.10
2019-06-01T02:54:04.066Z,17.10
2019-06-01T02:56:42.540Z,17.20
2019-06-01T02:59:09.878Z,17.10
2019-06-01T03:01:38.747Z,17.20
2019-06-01T03:04:10.742Z,17.20
2019-06-01T03:06:41.929Z,17.00
2019-06-01T03:09:11.128Z,17.10
2019-06-01T03:11:41.075Z,17.10
2019-06-01T03:14:12.585Z,17.10
2019-06-01T03:16:42.565Z,17.10
2019-06-01T03:19:12.115Z,17.10
2019-06-01T03:21:44.356Z,17.00
2019-06-01T03:24:13.479Z,16.80
2019-06-01T03:26:45.027Z,16.60
2019-06-01T03:29:16.452Z,16.80
2019-06-01T03:31:45.194Z,16.80
2019-06-01T03:34:14.150Z,16.70
2019-06-01T03:36:43.340Z,16.60
2019-06-01T03:39:13.067Z,16.60
2019-06-01T03:41:42.527Z,16.60
2019-06-01T03:44:11.154Z,16.30
2019-06-01T03:46:39.937Z,16.20
2019-06-01T03:49:09.783Z,16.30
2019-06-01T03:51:38.419Z,16.40
2019-06-01T03:54:08.567Z,16.40
2019-06-01T03:56:37.368Z,16.50
2019-06-01T03:59:07.149Z,16.50
2019-06-01T04:01:36.002Z,16.60
2019-06-01T04:04:05.129Z,16.50
2019-06-01T04:06:33.737Z,16.50
2019-06-01T04:09:03.518Z,16.70
2019-06-01T04:11:32.316Z,16.80
2019-06-01T04:14:03.410Z,16.60
2019-06-01T04:16:32.068Z,16.40
2019-06-01T04:19:01.691Z,16.50
2019-06-01T04:21:30.388Z,16.10
2019-06-01T04:23:58.986Z,16.10
2019-06-01T04:26:27.644Z,16.30
2019-06-01T04:28:56.578Z,16.50
2019-06-01T04:31:25.048Z,16.50
2019-06-01T04:33:53.636Z,16.50
2019-06-01T04:36:22.566Z,16.40
2019-06-01T04:38:51.058Z,16.70
2019-06-01T04:41:19.659Z,16.50
2019-06-01T04:43:48.380Z,16.50
2019-06-01T04:46:16.995Z,16.50
2019-06-01T04:48:45.462Z,16.50
2019-06-01T04:51:14.975Z,16.60
2019-06-01T04:53:43.748Z,16.70
2019-06-01T04:56:13.092Z,16.50
2019-06-01T04:58:41.796Z,16.60
2019-06-01T05:01:10.935Z,16.60
2019-06-01T05:03:39.588Z,16.70
2019-06-01T05:06:09.260Z,16.70
2019-06-01T05:08:37.970Z,16.70
2019-06-01T05:11:08.297Z,16.90
2019-06-01T05:13:36.975Z,16.90
2019-06-01T05:16:05.903Z,16.80
2019-06-01T05:18:34.688Z,16.80
2019-06-01T05:21:03.352Z,16.70
2019-06-01T05:23:32.069Z,16.70
2019-06-01T05:26:00.678Z,16.70
2019-06-01T05:28:29.147Z,16.40
2019-06-01T05:30:58.042Z,16.40
2019-06-01T05:33:37.033Z,16.60
2019-06-01T05:35:56.807Z,16.60
2019-06-01T05:38:25.520Z,16.60
2019-06-01T05:41:00.129Z,16.50
2019-06-01T05:43:28.779Z,16.70
2019-06-01T05:45:57.525Z,16.40
2019-06-01T05:48:30.370Z,16.60
2019-06-01T05:50:56.582Z,16.70
2019-06-01T05:53:25.599Z,16.90
2019-06-01T05:55:54.292Z,17.10
2019-06-01T05:58:23.098Z,17.30
2019-06-01T06:00:51.764Z,17.30
2019-06-01T06:03:23.624Z,17.40
2019-06-01T06:05:50.979Z,17.60
2019-06-01T06:08:20.146Z,17.70
2019-06-01T06:10:48.658Z,17.50
2019-06-01T06:13:17.463Z,17.60
2019-06-01T06:15:46.044Z,17.90
2019-06-01T06:18:15.717Z,18.10
2019-06-01T06:20:44.662Z,18.20
2019-06-01T06:23:14.264Z,18.00
2019-06-01T06:25:43.215Z,18.10
2019-06-01T06:28:12.556Z,18.00
2019-06-01T06:30:44.563Z,18.40
2019-06-01T06:33:13.779Z,18.40
2019-06-01T06:35:46.289Z,18.60
2019-06-01T06:38:15.670Z,18.40
2019-06-01T06:40:44.714Z,18.70
2019-06-01T06:43:21.300Z,19.00
2019-06-01T06:45:43.752Z,19.20
2019-06-01T06:48:12.476Z,19.40
2019-06-01T06:50:41.061Z,19.50
2019-06-01T06:53:22.406Z,19.70
2019-06-01T06:55:40.366Z,19.90
2019-06-01T06:58:08.949Z,20.10
2019-06-01T07:00:37.798Z,20.20
2019-06-01T07:03:06.511Z,19.90
2019-06-01T07:05:35.106Z,19.90
2019-06-01T07:08:03.718Z,20.00
2019-06-01T07:10:32.427Z,20.10
2019-06-01T07:13:03.377Z,20.00
2019-06-01T07:15:31.975Z,20.30
2019-06-01T07:18:00.707Z,20.30
2019-06-01T07:20:29.394Z,20.40
2019-06-01T07:22:58.096Z,20.40
2019-06-01T07:25:26.938Z,20.60
2019-06-01T07:27:55.649Z,20.90
2019-06-01T07:30:24.476Z,21.20
2019-06-01T07:32:53.203Z,21.50
2019-06-01T07:35:22.384Z,21.70
2019-06-01T07:37:51.210Z,21.80
2019-06-01T07:40:20.965Z,21.80
2019-06-01T07:42:49.759Z,21.70
2019-06-01T07:45:18.521Z,21.70
2019-06-01T07:47:47.204Z,21.40
2019-06-01T07:50:16.148Z,21.50
2019-06-01T07:52:44.858Z,21.80
2019-06-01T07:55:14.104Z,21.80
2019-06-01T07:57:44.247Z,22.00
2019-06-01T08:00:13.458Z,22.40
2019-06-01T08:02:42.116Z,22.30
2019-06-01T08:05:11.189Z,22.40
2019-06-01T08:07:43.868Z,22.70
2019-06-01T08:10:23.105Z,22.70
2019-06-01T08:12:54.764Z,22.80
2019-06-01T08:15:23.611Z,22.60
2019-06-01T08:17:52.180Z,22.70
2019-06-01T08:20:21.902Z,22.80
2019-06-01T08:22:50.736Z,23.00
2019-06-01T08:25:19.228Z,22.80
2019-06-01T08:27:48.015Z,22.70
2019-06-01T08:30:16.658Z,22.90
2019-06-01T08:32:45.252Z,23.00
2019-06-01T08:35:14.002Z,23.10
2019-06-01T08:37:42.615Z,22.90
2019-06-01T08:40:11.529Z,23.00
2019-06-01T08:42:40.579Z,23.10
2019-06-01T08:45:09.790Z,23.30
2019-06-01T08:47:38.509Z,23.20
2019-06-01T08:50:07.570Z,23.50
2019-06-01T08:52:36.121Z,23.60
2019-06-01T08:55:07.495Z,23.50
2019-06-01T08:57:36.134Z,23.70
2019-06-01T09:00:07.076Z,23.40
2019-06-01T09:02:36.495Z,23.50
2019-06-01T09:05:21.293Z,23.80
2019-06-01T09:07:38.668Z,23.90
2019-06-01T09:10:10.627Z,24.20
2019-06-01T09:12:39.290Z,24.60
2019-06-01T09:15:09.133Z,24.50
2019-06-01T09:17:39.748Z,24.80
2019-06-01T09:20:08.581Z,25.20
2019-06-01T09:22:37.138Z,25.60
2019-06-01T09:25:07.461Z,26.10
2019-06-01T09:27:36.292Z,26.20
2019-06-01T09:30:06.937Z,25.90
2019-06-01T09:32:36.503Z,25.80
2019-06-01T09:35:06.774Z,25.60
2019-06-01T09:37:36.667Z,25.50
2019-06-01T09:40:06.927Z,25.10
2019-06-01T09:42:37.287Z,25.40
2019-06-01T09:45:08.099Z,25.50
2019-06-01T09:47:37.897Z,25.80
2019-06-01T09:50:06.812Z,25.90
2019-06-01T09:52:35.683Z,26.20
2019-06-01T09:55:05.952Z,26.00
2019-06-01T09:57:34.702Z,26.30
2019-06-01T10:00:05.109Z,26.10
2019-06-01T10:02:34.128Z,26.30
2019-06-01T10:05:02.756Z,27.00
2019-06-01T10:07:32.723Z,26.90
2019-06-01T10:10:01.414Z,26.70
2019-06-01T10:12:29.951Z,26.90
2019-06-01T10:14:58.880Z,26.80
2019-06-01T10:17:34.739Z,26.50
2019-06-01T10:20:07.298Z,26.80
2019-06-01T10:22:37.072Z,27.10
2019-06-01T10:25:07.742Z,27.00
2019-06-01T10:27:36.783Z,27.30
2019-06-01T10:30:08.914Z,27.00
2019-06-01T10:32:38.067Z,26.60
2019-06-01T10:35:07.810Z,26.60
2019-06-01T10:37:37.584Z,27.10
2019-06-01T10:40:06.793Z,27.10
2019-06-01T10:42:36.095Z,26.80
2019-06-01T10:45:06.238Z,26.90
2019-06-01T10:47:35.913Z,27.40
2019-06-01T10:50:06.300Z,27.60
2019-06-01T10:52:36.157Z,27.30
2019-06-01T10:55:06.702Z,27.00
2019-06-01T10:57:36.617Z,27.30
2019-06-01T11:00:10.581Z,27.90
2019-06-01T11:02:40.681Z,28.00
2019-06-01T11:05:10.298Z,27.70
2019-06-01T11:07:39.192Z,27.10
2019-06-01T11:10:08.737Z,27.10
2019-06-01T11:12:37.402Z,27.60
2019-06-01T11:15:10.034Z,27.40
2019-06-01T11:17:39.293Z,27.20
2019-06-01T11:20:08.681Z,27.60
2019-06-01T11:22:37.690Z,27.80
2019-06-01T11:25:07.120Z,28.50
2019-06-01T11:27:35.849Z,29.20
2019-06-01T11:30:10.495Z,29.20
2019-06-01T11:32:39.944Z,28.80
2019-06-01T11:35:09.873Z,28.40
2019-06-01T11:37:38.671Z,28.70
2019-06-01T11:40:08.852Z,28.70
2019-06-01T11:42:38.897Z,28.60
2019-06-01T11:45:08.230Z,29.20
2019-06-01T11:47:36.903Z,29.70
2019-06-01T11:50:07.280Z,29.60
2019-06-01T11:52:37.040Z,29.50
2019-06-01T11:55:07.975Z,29.00
2019-06-01T11:57:37.450Z,28.90
2019-06-01T12:00:11.233Z,29.50
2019-06-01T12:02:39.992Z,29.00
2019-06-01T12:05:09.453Z,29.40
2019-06-01T12:07:38.206Z,30.00
2019-06-01T12:10:07.611Z,30.40
2019-06-01T12:12:36.205Z,30.40
2019-06-01T12:15:06.095Z,30.30
2019-06-01T12:17:34.700Z,30.30
2019-06-01T12:20:05.128Z,30.30
2019-06-01T12:22:33.674Z,30.40
2019-06-01T12:25:02.484Z,29.80
2019-06-01T12:27:31.046Z,29.90
2019-06-01T12:29:59.738Z,29.90
2019-06-01T12:32:28.358Z,29.50
2019-06-01T12:34:56.961Z,29.60
2019-06-01T12:37:39.772Z,29.80
2019-06-01T12:39:55.821Z,30.40
2019-06-01T12:42:24.496Z,30.10
2019-06-01T12:44:53.212Z,29.70
2019-06-01T12:47:21.896Z,29.60
2019-06-01T12:49:50.364Z,29.60
2019-06-01T12:52:19.078Z,29.70
2019-06-01T12:54:48.933Z,29.90
2019-06-01T12:57:17.715Z,29.40
2019-06-01T12:59:47.400Z,29.70
2019-06-01T13:02:16.190Z,30.20
2019-06-01T13:04:44.954Z,30.60
2019-06-01T13:07:13.579Z,30.90
2019-06-01T13:09:42.269Z,31.20
2019-06-01T13:12:10.817Z,31.80
2019-06-01T13:14:40.880Z,31.90
2019-06-01T13:17:09.753Z,31.40
2019-06-01T13:19:38.279Z,31.00
2019-06-01T13:22:06.928Z,31.20
2019-06-01T13:24:35.402Z,30.80
2019-06-01T13:27:04.079Z,30.50
2019-06-01T13:29:32.725Z,30.20
2019-06-01T13:32:01.318Z,30.40
2019-06-01T13:34:33.813Z,30.00
2019-06-01T13:37:00.185Z,30.50
2019-06-01T13:39:28.727Z,30.80
2019-06-01T13:41:57.406Z,31.50
2019-06-01T13:44:26.138Z,31.60
2019-06-01T13:46:54.770Z,31.60
2019-06-01T13:49:24.282Z,31.50
2019-06-01T13:51:54.548Z,31.30
2019-06-01T13:54:23.247Z,31.30
2019-06-01T13:56:52.885Z,31.40
2019-06-01T13:59:21.866Z,31.80
2019-06-01T14:01:51.416Z,32.20
2019-06-01T14:04:20.137Z,32.70
2019-06-01T14:06:49.092Z,33.00
2019-06-01T14:09:21.513Z,33.20
2019-06-01T14:11:49.292Z,32.40
2019-06-01T14:14:18.193Z,32.40
2019-06-01T14:16:47.524Z,32.40
2019-06-01T14:19:16.250Z,31.70
2019-06-01T14:21:45.753Z,32.20
2019-06-01T14:24:14.295Z,31.90
2019-06-01T14:26:42.993Z,32.20
2019-06-01T14:29:11.690Z,32.40
2019-06-01T14:31:40.379Z,32.70
2019-06-01T14:34:08.903Z,32.80
2019-06-01T14:36:37.496Z,32.90
2019-06-01T14:39:07.505Z,31.70
2019-06-01T14:41:36.234Z,31.70
2019-06-01T14:46:52.749Z,32.50
2019-06-01T14:49:09.735Z,33.00
2019-06-01T14:51:38.282Z,33.10
2019-06-01T14:54:06.948Z,33.10
2019-06-01T14:56:35.633Z,33.10
2019-06-01T14:59:04.599Z,33.40
2019-06-01T15:01:33.375Z,33.80
2019-06-01T15:04:02.242Z,33.50
2019-06-01T15:06:30.740Z,33.50
2019-06-01T15:09:15.196Z,33.00
2019-06-01T15:11:29.774Z,32.80
2019-06-01T15:13:58.613Z,32.90
2019-06-01T15:16:27.316Z,32.70
2019-06-01T15:18:56.205Z,33.10
2019-06-01T15:21:24.796Z,33.50
2019-06-01T15:23:53.872Z,33.80
2019-06-01T15:26:22.748Z,33.90
2019-06-01T15:28:52.756Z,33.40
2019-06-01T15:31:21.581Z,33.30
2019-06-01T15:33:51.237Z,32.90
2019-06-01T15:36:19.862Z,32.90
2019-06-01T15:38:48.413Z,32.40
2019-06-01T15:41:17.101Z,32.70
2019-06-01T15:43:45.721Z,32.90
2019-06-01T15:46:14.389Z,33.30
2019-06-01T15:48:43.254Z,33.40
2019-06-01T15:51:11.942Z,33.70
2019-06-01T15:53:40.685Z,33.80
2019-06-01T15:56:09.465Z,33.60
2019-06-01T15:58:51.763Z,33.60
2019-06-01T16:01:08.649Z,33.60
2019-06-01T16:03:37.364Z,33.50
2019-06-01T16:06:06.088Z,33.40
2019-06-01T16:08:34.721Z,33.10
2019-06-01T16:11:06.228Z,32.60
2019-06-01T16:13:33.965Z,32.30
2019-06-01T16:16:03.951Z,32.30
2019-06-01T16:18:32.963Z,32.30
2019-06-01T16:21:02.300Z,32.40
2019-06-01T16:23:46.233Z,32.20
2019-06-01T16:26:12.153Z,31.90
2019-06-01T16:28:32.020Z,31.60
2019-06-01T16:31:00.684Z,31.20
2019-06-01T16:33:46.069Z,30.90
2019-06-01T16:36:14.835Z,30.90
2019-06-01T16:38:43.515Z,30.80
2019-06-01T16:41:13.731Z,30.50
2019-06-01T16:43:42.339Z,30.20
2019-06-01T16:46:11.007Z,30.00
2019-06-01T16:48:39.640Z,29.80
2019-06-01T16:51:08.373Z,29.80
2019-06-01T16:56:09.302Z,29.90
2019-06-01T16:58:39.597Z,30.20
2019-06-01T17:01:08.177Z,30.40
2019-06-01T17:03:36.845Z,30.40
2019-06-01T17:06:06.807Z,30.20
2019-06-01T17:08:35.727Z,30.40
2019-06-01T17:11:04.849Z,30.40
2019-06-01T17:13:34.059Z,30.30
2019-06-01T17:16:03.310Z,30.00
2019-06-01T17:18:32.085Z,30.00
2019-06-01T17:21:01.414Z,29.60
2019-06-01T17:23:32.883Z,29.20
2019-06-01T17:26:00.453Z,29.10
2019-06-01T17:28:29.209Z,29.60
2019-06-01T17:30:58.462Z,29.50
2019-06-01T17:33:27.285Z,29.40
2019-06-01T17:35:55.927Z,29.40
2019-06-01T17:38:24.628Z,29.40
2019-06-01T17:40:53.371Z,29.10
2019-06-01T17:43:22.064Z,29.20
2019-06-01T17:45:50.967Z,29.00
2019-06-01T17:48:26.414Z,29.00
2019-06-01T17:50:50.043Z,28.80
2019-06-01T17:53:19.035Z,28.70
2019-06-01T17:55:47.642Z,28.90
2019-06-01T17:58:16.201Z,28.70
2019-06-01T18:00:44.960Z,28.60
2019-06-01T18:03:13.593Z,28.60
2019-06-01T18:05:42.613Z,28.50
2019-06-01T18:08:12.922Z,28.40
2019-06-01T18:10:53.109Z,28.00
2019-06-01T18:13:12.875Z,27.90
2019-06-01T18:15:41.920Z,28.00
2019-06-01T18:18:10.991Z,27.90
2019-06-01T18:20:39.916Z,27.90
2019-06-01T18:23:11.404Z,27.90
2019-06-01T18:25:42.182Z,27.90
2019-06-01T18:28:19.074Z,27.80
2019-06-01T18:30:44.006Z,27.70
2019-06-01T18:33:13.198Z,27.60
2019-06-01T18:35:42.270Z,27.70
2019-06-01T18:38:12.805Z,27.80
2019-06-01T18:40:41.320Z,27.70
2019-06-01T18:43:14.135Z,27.80
2019-06-01T18:45:43.986Z,27.80
2019-06-01T18:48:12.654Z,27.60
2019-06-01T18:50:41.718Z,27.80
2019-06-01T18:53:10.582Z,27.70
2019-06-01T18:55:39.378Z,27.70
2019-06-01T18:58:08.332Z,27.50
2019-06-01T19:00:39.621Z,27.50
2019-06-01T19:03:08.946Z,27.40
2019-06-01T19:05:38.034Z,27.30
2019-06-01T19:08:07.210Z,27.40
2019-06-01T19:10:39.319Z,27.20
2019-06-01T19:13:08.151Z,27.40
2019-06-01T19:15:36.875Z,27.20
2019-06-01T19:18:08.200Z,27.20
2019-06-01T19:20:37.154Z,27.00
2019-06-01T19:23:06.636Z,27.10
2019-06-01T19:25:36.469Z,27.00
2019-06-01T19:28:06.694Z,27.00
2019-06-01T19:30:42.985Z,26.80
2019-06-01T19:33:15.363Z,26.70
2019-06-01T19:35:42.610Z,26.50
2019-06-01T19:38:13.356Z,26.40
2019-06-01T19:40:41.799Z,26.50
2019-06-01T19:43:11.579Z,26.40
2019-06-01T19:45:40.501Z,26.40
2019-06-01T19:48:12.301Z,26.60
2019-06-01T19:50:41.562Z,26.70
2019-06-01T19:53:10.594Z,26.50
2019-06-01T19:55:42.529Z,26.50
2019-06-01T19:58:12.127Z,26.50
2019-06-01T20:00:40.774Z,26.60
2019-06-01T20:03:10.287Z,26.50
2019-06-01T20:05:39.084Z,26.60
2019-06-01T20:08:07.671Z,26.60
2019-06-01T20:10:36.427Z,26.60
2019-06-01T20:13:05.095Z,26.70
2019-06-01T20:15:33.717Z,26.50
2019-06-01T20:18:02.634Z,26.50
2019-06-01T20:20:31.162Z,26.50
2019-06-01T20:23:00.067Z,26.60
2019-06-01T20:25:28.647Z,26.50
2019-06-01T20:27:57.363Z,26.50
2019-06-01T20:30:25.910Z,26.40
2019-06-01T20:32:54.750Z,26.40
2019-06-01T20:35:23.311Z,26.40
2019-06-01T20:37:51.847Z,26.30
2019-06-01T20:40:20.494Z,26.30
2019-06-01T20:42:49.099Z,26.20
2019-06-01T20:45:18.786Z,26.10
2019-06-01T20:47:47.621Z,26.00
2019-06-01T20:50:16.737Z,26.00
2019-06-01T20:52:45.352Z,26.00
2019-06-01T20:55:15.195Z,26.00
2019-06-01T20:57:43.801Z,25.90
2019-06-01T21:00:13.514Z,25.90
2019-06-01T21:02:42.969Z,25.90
2019-06-01T21:05:11.708Z,25.80
2019-06-01T21:07:40.315Z,25.80
2019-06-01T21:10:10.176Z,25.70
2019-06-01T21:12:46.312Z,25.70
2019-06-01T21:15:09.601Z,25.60
2019-06-01T21:17:38.317Z,25.60
2019-06-01T21:20:08.341Z,25.50
2019-06-01T21:22:37.203Z,25.50
2019-06-01T21:25:07.667Z,25.50
2019-06-01T21:27:36.250Z,25.40
2019-06-01T21:30:10.515Z,25.30
2019-06-01T21:32:39.061Z,25.20
2019-06-01T21:35:07.686Z,25.10
2019-06-01T21:37:36.557Z,25.20
2019-06-01T21:40:09.449Z,25.20
2019-06-01T21:42:38.796Z,25.10
2019-06-01T21:45:10.215Z,25.10
2019-06-01T21:47:39.998Z,24.90
2019-06-01T21:50:10.483Z,24.80
2019-06-01T21:52:39.108Z,24.80
2019-06-01T21:55:07.884Z,24.70
2019-06-01T21:57:36.451Z,24.60
2019-06-01T22:00:11.140Z,24.60
2019-06-01T22:02:39.711Z,24.60
2019-06-01T22:05:08.808Z,24.60
2019-06-01T22:07:37.747Z,24.50
2019-06-01T22:10:06.892Z,24.50
2019-06-01T22:12:35.358Z,24.50
2019-06-01T22:15:06.114Z,24.60
2019-06-01T22:17:34.812Z,24.60
2019-06-01T22:20:04.671Z,24.40
2019-06-01T22:22:33.312Z,24.40
2019-06-01T22:25:01.995Z,24.40
2019-06-01T22:27:30.829Z,24.40
2019-06-01T22:29:59.495Z,24.30
2019-06-01T22:32:31.156Z,24.30
2019-06-01T22:34:58.245Z,24.30
2019-06-01T22:37:28.188Z,24.40
2019-06-01T22:39:56.747Z,24.20
2019-06-01T22:42:26.361Z,24.20
2019-06-01T22:44:55.340Z,24.20
2019-06-01T22:47:24.524Z,24.20
2019-06-01T22:49:53.148Z,24.20
2019-06-01T22:52:22.954Z,24.20
2019-06-01T22:54:51.638Z,24.10
2019-06-01T22:57:20.372Z,24.00
2019-06-01T22:59:49.050Z,24.00
2019-06-01T23:02:17.711Z,23.80
2019-06-01T23:04:46.261Z,23.80
2019-06-01T23:07:15.043Z,23.70
2019-06-01T23:09:43.663Z,23.70
2019-06-01T23:12:12.163Z,23.70
2019-06-01T23:14:40.916Z,23.70
2019-06-01T23:17:09.603Z,23.70
2019-06-01T23:19:38.228Z,23.70
2019-06-01T23:22:07.075Z,23.70
2019-06-01T23:24:35.674Z,23.70
2019-06-01T23:27:04.586Z,23.70
2019-06-01T23:29:33.457Z,23.50
2019-06-01T23:32:02.001Z,23.50
2019-06-01T23:34:30.724Z,23.50
2019-06-01T23:36:59.690Z,23.40
2019-06-01T23:39:28.804Z,23.40
2019-06-01T23:41:57.515Z,23.40
2019-06-01T23:44:29.482Z,23.40
2019-06-01T23:46:56.383Z,23.30
2019-06-01T23:49:25.157Z,23.30
2019-06-01T23:51:54.007Z,23.30
2019-06-01T23:54:23.506Z,23.20
2019-06-01T23:56:52.080Z,23.20
2019-06-01T23:59:20.857Z,23.30
